sensor_id;sensor_type;location;lat;lon;timestamp;P1;durP1;ratioP1;P2;durP2;ratioP2
21517;SDS011;61765;45.794;24.150;2023-08-08T00:01:03;2.70;;;0.77;;
21517;SDS011;61765;45.794;24.150;2023-08-08T00:26:39;1.02;;;0.50;;
21517;SDS011;61765;45.794;24.150;2023-08-08T00:34:48;1.30;;;0.70;;
21517;SDS011;61765;45.794;24.150;2023-08-08T00:42:53;1.20;;;0.52;;
21517;SDS011;61765;45.794;24.150;2023-08-08T00:51:01;0.80;;;0.68;;
21517;SDS011;61765;45.794;24.150;2023-08-08T00:59:07;0.70;;;0.60;;
21517;SDS011;61765;45.794;24.150;2023-08-08T01:07:23;1.65;;;0.60;;
21517;SDS011;61765;45.794;24.150;2023-08-08T01:15:34;4.05;;;0.80;;
21517;SDS011;61765;45.794;24.150;2023-08-08T01:23:45;1.88;;;0.50;;
21517;SDS011;61765;45.794;24.150;2023-08-08T01:31:58;0.73;;;0.73;;
21517;SDS011;61765;45.794;24.150;2023-08-08T01:40:04;0.60;;;0.50;;
21517;SDS011;61765;45.794;24.150;2023-08-08T01:48:14;0.68;;;0.55;;
21517;SDS011;61765;45.794;24.150;2023-08-08T01:56:20;0.70;;;0.50;;
21517;SDS011;61765;45.794;24.150;2023-08-08T02:04:28;1.35;;;0.50;;
21517;SDS011;61765;45.794;24.150;2023-08-08T02:12:34;1.83;;;0.77;;
21517;SDS011;61765;45.794;24.150;2023-08-08T02:20:42;0.30;;;0.30;;
21517;SDS011;61765;45.794;24.150;2023-08-08T02:28:47;1.17;;;0.55;;
21517;SDS011;61765;45.794;24.150;2023-08-08T02:36:55;2.05;;;0.68;;
21517;SDS011;61765;45.794;24.150;2023-08-08T02:45:01;0.77;;;0.50;;
21517;SDS011;61765;45.794;24.150;2023-08-08T02:53:10;2.55;;;0.75;;
21517;SDS011;61765;45.794;24.150;2023-08-08T03:01:19;1.10;;;0.50;;
21517;SDS011;61765;45.794;24.150;2023-08-08T03:09:28;1.08;;;0.70;;
21517;SDS011;61765;45.794;24.150;2023-08-08T03:17:33;1.00;;;0.50;;
21517;SDS011;61765;45.794;24.150;2023-08-08T03:25:42;1.40;;;0.60;;
21517;SDS011;61765;45.794;24.150;2023-08-08T03:33:48;1.42;;;0.80;;
21517;SDS011;61765;45.794;24.150;2023-08-08T03:41:56;0.93;;;0.47;;
21517;SDS011;61765;45.794;24.150;2023-08-08T03:50:04;2.40;;;1.20;;
21517;SDS011;61765;45.794;24.150;2023-08-08T03:58:15;3.72;;;0.88;;
21517;SDS011;61765;45.794;24.150;2023-08-08T04:06:20;2.40;;;0.65;;
21517;SDS011;61765;45.794;24.150;2023-08-08T04:14:29;1.23;;;0.75;;
21517;SDS011;61765;45.794;24.150;2023-08-08T04:22:34;3.05;;;1.08;;
21517;SDS011;61765;45.794;24.150;2023-08-08T04:30:42;3.22;;;1.38;;
21517;SDS011;61765;45.794;24.150;2023-08-08T04:38:48;2.95;;;0.75;;
21517;SDS011;61765;45.794;24.150;2023-08-08T04:46:56;2.63;;;1.00;;
21517;SDS011;61765;45.794;24.150;2023-08-08T04:55:02;1.70;;;1.00;;
21517;SDS011;61765;45.794;24.150;2023-08-08T05:03:11;1.05;;;0.70;;
21517;SDS011;61765;45.794;24.150;2023-08-08T05:11:19;2.42;;;0.90;;
21517;SDS011;61765;45.794;24.150;2023-08-08T05:19:27;0.88;;;0.55;;
21517;SDS011;61765;45.794;24.150;2023-08-08T05:27:33;2.03;;;1.83;;
21517;SDS011;61765;45.794;24.150;2023-08-08T05:35:41;4.88;;;1.15;;
21517;SDS011;61765;45.794;24.150;2023-08-08T05:43:46;1.50;;;1.20;;
21517;SDS011;61765;45.794;24.150;2023-08-08T05:51:54;0.68;;;0.68;;
21517;SDS011;61765;45.794;24.150;2023-08-08T06:00:00;1.52;;;0.90;;
21517;SDS011;61765;45.794;24.150;2023-08-08T06:08:15;3.97;;;1.10;;
21517;SDS011;61765;45.794;24.150;2023-08-08T06:16:21;1.00;;;0.77;;
21517;SDS011;61765;45.794;24.150;2023-08-08T06:24:29;1.10;;;0.52;;
21517;SDS011;61765;45.794;24.150;2023-08-08T06:32:35;2.35;;;0.80;;
21517;SDS011;61765;45.794;24.150;2023-08-08T06:40:43;4.05;;;0.95;;
21517;SDS011;61765;45.794;24.150;2023-08-08T06:48:49;1.60;;;0.90;;
21517;SDS011;61765;45.794;24.150;2023-08-08T06:57:00;2.60;;;0.75;;
21517;SDS011;61765;45.794;24.150;2023-08-08T07:05:06;1.73;;;0.98;;
21517;SDS011;61765;45.794;24.150;2023-08-08T07:13:15;1.70;;;0.50;;
21517;SDS011;61765;45.794;24.150;2023-08-08T07:21:20;3.55;;;2.42;;
21517;SDS011;61765;45.794;24.150;2023-08-08T07:29:28;2.25;;;1.45;;
21517;SDS011;61765;45.794;24.150;2023-08-08T07:37:34;1.42;;;1.10;;
21517;SDS011;61765;45.794;24.150;2023-08-08T07:45:43;1.55;;;1.00;;
21517;SDS011;61765;45.794;24.150;2023-08-08T07:53:48;2.08;;;1.40;;
21517;SDS011;61765;45.794;24.150;2023-08-08T08:01:57;1.20;;;0.93;;
21517;SDS011;61765;45.794;24.150;2023-08-08T08:10:03;1.60;;;1.05;;
21517;SDS011;61765;45.794;24.150;2023-08-08T08:18:13;2.00;;;1.55;;
21517;SDS011;61765;45.794;24.150;2023-08-08T08:26:20;3.00;;;1.65;;
21517;SDS011;61765;45.794;24.150;2023-08-08T08:34:28;1.48;;;1.10;;
21517;SDS011;61765;45.794;24.150;2023-08-08T08:42:34;3.65;;;1.40;;
21517;SDS011;61765;45.794;24.150;2023-08-08T08:50:42;2.33;;;1.00;;
21517;SDS011;61765;45.794;24.150;2023-08-08T08:58:50;1.45;;;1.20;;
21517;SDS011;61765;45.794;24.150;2023-08-08T09:07:00;1.85;;;1.05;;
21517;SDS011;61765;45.794;24.150;2023-08-08T09:15:08;1.92;;;1.08;;
21517;SDS011;61765;45.794;24.150;2023-08-08T09:23:16;2.20;;;1.00;;
21517;SDS011;61765;45.794;24.150;2023-08-08T09:31:24;2.85;;;1.52;;
21517;SDS011;61765;45.794;24.150;2023-08-08T09:39:32;3.30;;;1.40;;
21517;SDS011;61765;45.794;24.150;2023-08-08T09:47:39;2.55;;;1.52;;
21517;SDS011;61765;45.794;24.150;2023-08-08T09:55:47;2.65;;;1.52;;
21517;SDS011;61765;45.794;24.150;2023-08-08T10:03:53;1.40;;;1.10;;
21517;SDS011;61765;45.794;24.150;2023-08-08T10:12:03;1.23;;;0.98;;
21517;SDS011;61765;45.794;24.150;2023-08-08T10:20:10;0.85;;;0.68;;
21517;SDS011;61765;45.794;24.150;2023-08-08T10:28:22;0.90;;;0.77;;
21517;SDS011;61765;45.794;24.150;2023-08-08T10:36:42;1.83;;;1.10;;
21517;SDS011;61765;45.794;24.150;2023-08-08T10:44:54;1.15;;;1.05;;
21517;SDS011;61765;45.794;24.150;2023-08-08T10:53:00;2.38;;;1.35;;
21517;SDS011;61765;45.794;24.150;2023-08-08T11:01:10;3.95;;;1.65;;
21517;SDS011;61765;45.794;24.150;2023-08-08T11:09:21;3.92;;;2.35;;
21517;SDS011;61765;45.794;24.150;2023-08-08T11:17:31;2.70;;;1.80;;
21517;SDS011;61765;45.794;24.150;2023-08-08T11:25:39;2.15;;;1.00;;
21517;SDS011;61765;45.794;24.150;2023-08-08T11:33:49;0.70;;;0.70;;
21517;SDS011;61765;45.794;24.150;2023-08-08T11:41:55;1.35;;;1.25;;
21517;SDS011;61765;45.794;24.150;2023-08-08T11:50:04;0.88;;;0.88;;
21517;SDS011;61765;45.794;24.150;2023-08-08T11:58:13;2.78;;;2.38;;
21517;SDS011;61765;45.794;24.150;2023-08-08T12:06:22;3.10;;;2.40;;
21517;SDS011;61765;45.794;24.150;2023-08-08T12:14:36;2.08;;;1.40;;
21517;SDS011;61765;45.794;24.150;2023-08-08T12:22:55;5.47;;;2.28;;
21517;SDS011;61765;45.794;24.150;2023-08-08T12:31:00;1.77;;;1.50;;
21517;SDS011;61765;45.794;24.150;2023-08-08T12:39:08;2.50;;;2.05;;
21517;SDS011;61765;45.794;24.150;2023-08-08T12:47:15;2.72;;;1.80;;
21517;SDS011;61765;45.794;24.150;2023-08-08T12:55:23;2.28;;;1.38;;
21517;SDS011;61765;45.794;24.150;2023-08-08T13:03:29;1.58;;;1.20;;
21517;SDS011;61765;45.794;24.150;2023-08-08T13:11:38;1.70;;;1.52;;
21517;SDS011;61765;45.794;24.150;2023-08-08T13:19:44;4.10;;;1.60;;
21517;SDS011;61765;45.794;24.150;2023-08-08T13:27:53;2.50;;;1.08;;
21517;SDS011;61765;45.794;24.150;2023-08-08T13:35:58;1.20;;;1.10;;
21517;SDS011;61765;45.794;24.150;2023-08-08T13:44:06;2.03;;;1.20;;
21517;SDS011;61765;45.794;24.150;2023-08-08T13:52:12;3.20;;;1.40;;
21517;SDS011;61765;45.794;24.150;2023-08-08T14:00:20;2.10;;;1.83;;
21517;SDS011;61765;45.794;24.150;2023-08-08T14:08:25;1.30;;;1.20;;
21517;SDS011;61765;45.794;24.150;2023-08-08T14:16:33;2.13;;;1.40;;
21517;SDS011;61765;45.794;24.150;2023-08-08T14:24:39;2.35;;;1.55;;
21517;SDS011;61765;45.794;24.150;2023-08-08T14:32:48;1.80;;;1.70;;
21517;SDS011;61765;45.794;24.150;2023-08-08T14:40:53;2.10;;;1.70;;
21517;SDS011;61765;45.794;24.150;2023-08-08T14:49:02;4.90;;;1.83;;
21517;SDS011;61765;45.794;24.150;2023-08-08T14:57:07;3.35;;;2.22;;
21517;SDS011;61765;45.794;24.150;2023-08-08T15:05:15;2.53;;;1.35;;
21517;SDS011;61765;45.794;24.150;2023-08-08T15:13:21;4.22;;;1.67;;
21517;SDS011;61765;45.794;24.150;2023-08-08T15:21:29;2.88;;;1.45;;
21517;SDS011;61765;45.794;24.150;2023-08-08T15:29:35;4.95;;;2.67;;
21517;SDS011;61765;45.794;24.150;2023-08-08T15:37:43;2.42;;;1.58;;
21517;SDS011;61765;45.794;24.150;2023-08-08T15:45:51;2.20;;;1.65;;
21517;SDS011;61765;45.794;24.150;2023-08-08T15:53:59;5.50;;;3.95;;
21517;SDS011;61765;45.794;24.150;2023-08-08T16:02:05;4.60;;;1.98;;
21517;SDS011;61765;45.794;24.150;2023-08-08T16:10:14;2.03;;;1.65;;
21517;SDS011;61765;45.794;24.150;2023-08-08T16:18:19;4.53;;;2.15;;
21517;SDS011;61765;45.794;24.150;2023-08-08T16:26:27;3.75;;;2.60;;
21517;SDS011;61765;45.794;24.150;2023-08-08T16:34:33;3.80;;;2.80;;
21517;SDS011;61765;45.794;24.150;2023-08-08T16:42:41;2.83;;;2.00;;
21517;SDS011;61765;45.794;24.150;2023-08-08T16:50:46;4.25;;;2.55;;
21517;SDS011;61765;45.794;24.150;2023-08-08T16:58:54;6.78;;;3.25;;
21517;SDS011;61765;45.794;24.150;2023-08-08T17:07:00;8.25;;;4.10;;
21517;SDS011;61765;45.794;24.150;2023-08-08T17:15:09;4.80;;;3.20;;
21517;SDS011;61765;45.794;24.150;2023-08-08T17:23:14;4.82;;;3.00;;
21517;SDS011;61765;45.794;24.150;2023-08-08T17:31:22;5.53;;;2.92;;
21517;SDS011;61765;45.794;24.150;2023-08-08T17:39:28;4.85;;;3.72;;
21517;SDS011;61765;45.794;24.150;2023-08-08T17:47:36;8.10;;;3.63;;
21517;SDS011;61765;45.794;24.150;2023-08-08T17:55:41;9.70;;;4.40;;
21517;SDS011;61765;45.794;24.150;2023-08-08T18:03:49;3.83;;;2.70;;
21517;SDS011;61765;45.794;24.150;2023-08-08T18:11:55;6.10;;;4.00;;
21517;SDS011;61765;45.794;24.150;2023-08-08T18:20:04;8.68;;;5.35;;
21517;SDS011;61765;45.794;24.150;2023-08-08T18:28:11;7.95;;;3.63;;
21517;SDS011;61765;45.794;24.150;2023-08-08T18:36:19;6.68;;;3.53;;
21517;SDS011;61765;45.794;24.150;2023-08-08T18:44:25;4.90;;;2.83;;
21517;SDS011;61765;45.794;24.150;2023-08-08T18:52:33;5.63;;;3.05;;
21517;SDS011;61765;45.794;24.150;2023-08-08T19:00:38;7.93;;;4.13;;
21517;SDS011;61765;45.794;24.150;2023-08-08T19:08:46;4.47;;;2.35;;
21517;SDS011;61765;45.794;24.150;2023-08-08T19:16:52;7.75;;;2.60;;
21517;SDS011;61765;45.794;24.150;2023-08-08T19:25:00;7.00;;;2.70;;
21517;SDS011;61765;45.794;24.150;2023-08-08T19:33:06;5.15;;;2.75;;
21517;SDS011;61765;45.794;24.150;2023-08-08T19:41:15;4.95;;;2.65;;
21517;SDS011;61765;45.794;24.150;2023-08-08T19:49:20;6.10;;;2.83;;
21517;SDS011;61765;45.794;24.150;2023-08-08T19:57:28;4.60;;;2.58;;
21517;SDS011;61765;45.794;24.150;2023-08-08T20:05:33;3.80;;;2.40;;
21517;SDS011;61765;45.794;24.150;2023-08-08T20:13:41;4.43;;;1.95;;
21517;SDS011;61765;45.794;24.150;2023-08-08T20:21:47;3.47;;;2.08;;
21517;SDS011;61765;45.794;24.150;2023-08-08T20:29:57;2.70;;;1.88;;
21517;SDS011;61765;45.794;24.150;2023-08-08T20:38:03;2.25;;;1.75;;
21517;SDS011;61765;45.794;24.150;2023-08-08T20:46:11;2.38;;;1.90;;
21517;SDS011;61765;45.794;24.150;2023-08-08T20:54:17;6.38;;;2.25;;
21517;SDS011;61765;45.794;24.150;2023-08-08T21:02:25;5.82;;;2.45;;
21517;SDS011;61765;45.794;24.150;2023-08-08T21:10:30;5.65;;;3.17;;
21517;SDS011;61765;45.794;24.150;2023-08-08T21:18:38;8.27;;;2.65;;
21517;SDS011;61765;45.794;24.150;2023-08-08T21:26:44;9.40;;;4.10;;
21517;SDS011;61765;45.794;24.150;2023-08-08T21:34:52;8.70;;;3.08;;
21517;SDS011;61765;45.794;24.150;2023-08-08T21:42:57;8.57;;;3.03;;
21517;SDS011;61765;45.794;24.150;2023-08-08T21:51:05;7.72;;;3.55;;
21517;SDS011;61765;45.794;24.150;2023-08-08T21:59:12;9.15;;;3.53;;
21517;SDS011;61765;45.794;24.150;2023-08-08T22:07:20;10.18;;;3.15;;
21517;SDS011;61765;45.794;24.150;2023-08-08T22:15:25;5.35;;;2.50;;
21517;SDS011;61765;45.794;24.150;2023-08-08T22:23:34;4.28;;;3.08;;
21517;SDS011;61765;45.794;24.150;2023-08-08T22:31:40;3.95;;;2.65;;
21517;SDS011;61765;45.794;24.150;2023-08-08T22:39:48;3.65;;;2.20;;
21517;SDS011;61765;45.794;24.150;2023-08-08T22:47:53;6.22;;;3.17;;
21517;SDS011;61765;45.794;24.150;2023-08-08T22:56:01;4.82;;;2.00;;
21517;SDS011;61765;45.794;24.150;2023-08-08T23:04:07;3.17;;;1.90;;
21517;SDS011;61765;45.794;24.150;2023-08-08T23:12:15;2.75;;;1.88;;
21517;SDS011;61765;45.794;24.150;2023-08-08T23:20:22;3.35;;;2.08;;
21517;SDS011;61765;45.794;24.150;2023-08-08T23:28:30;2.13;;;1.70;;
21517;SDS011;61765;45.794;24.150;2023-08-08T23:36:35;3.33;;;1.48;;
21517;SDS011;61765;45.794;24.150;2023-08-08T23:44:44;1.88;;;1.55;;
21517;SDS011;61765;45.794;24.150;2023-08-08T23:52:49;1.45;;;1.20;;
